Time,TemperatureF,DewpointF,PressureIn,WindDirection,WindDirectionDegrees,WindSpeedMPH,WindSpeedGustMPH,Humidity,HourlyPrecipIn,Conditions,Clouds,dailyrainin,SoftwareType,DateUTC
2013-09-09 00:10:00,75.9,67.8,29.93,South,170,7.0,7.0,76,0.00,CLR,CLR,0.00,WeatherDisplay:10.37,2013-09-09 05:10:00,
2013-09-09 00:40:00,75.0,67.7,29.94,South,180,7.0,7.0,78,0.00,CLR,CLR,0.00,WeatherDisplay:10.37,2013-09-09 05:40:00,
2013-09-09 01:10:00,75.0,67.7,29.94,South,180,7.0,7.0,78,0.00,CLR,CLR,0.00,WeatherDisplay:10.37,2013-09-09 06:10:00,
2013-09-09 01:40:00,75.0,68.8,29.93,South,170,7.0,7.0,81,0.00,CLR,CLR,0.00,WeatherDisplay:10.37,2013-09-09 06:40:00,
2013-09-09 02:10:00,75.0,68.8,29.93,South,170,7.0,7.0,81,0.00,CLR,CLR,0.00,WeatherDisplay:10.37,2013-09-09 07:10:00,
2013-09-09 02:40:00,73.9,68.8,29.93,South,170,5.0,5.0,84,0.00,CLR,CLR,0.00,WeatherDisplay:10.37,2013-09-09 07:40:00,
2013-09-09 03:10:00,73.9,68.8,29.93,South,170,5.0,5.0,84,0.00,CLR,CLR,0.00,WeatherDisplay:10.37,2013-09-09 08:10:00,
2013-09-09 03:40:00,73.9,69.8,29.92,South,180,7.0,7.0,87,0.00,CLR,CLR,0.00,WeatherDisplay:10.37,2013-09-09 08:40:00,
2013-09-09 04:10:00,73.9,69.8,29.92,South,180,7.0,7.0,87,0.00,CLR,CLR,0.00,WeatherDisplay:10.37,2013-09-09 09:10:00,
2013-09-09 04:40:00,73.9,70.8,29.91,South,170,7.0,7.0,90,0.00,FEW,FEW,0.00,WeatherDisplay:10.37,2013-09-09 09:40:00,
2013-09-09 05:10:00,73.9,70.8,29.91,South,170,7.0,7.0,90,0.00,FEW,FEW,0.00,WeatherDisplay:10.37,2013-09-09 10:10:00,
2013-09-09 05:40:00,73.9,69.8,29.90,SSE,160,7.0,7.0,87,0.00,BKN,BKN,0.00,WeatherDisplay:10.37,2013-09-09 10:40:00,
2013-09-09 06:10:00,73.9,69.8,29.90,SSE,160,7.0,7.0,87,0.00,BKN,BKN,0.00,WeatherDisplay:10.37,2013-09-09 11:10:00,
2013-09-09 06:40:00,73.0,69.9,29.90,South,170,9.0,9.0,90,0.00,CLR,CLR,0.00,WeatherDisplay:10.37,2013-09-09 11:40:00,
2013-09-09 07:10:00,73.0,69.9,29.91,South,180,10.0,10.0,90,0.00,CLR,CLR,0.00,WeatherDisplay:10.37,2013-09-09 12:10:00,
2013-09-09 07:40:00,73.0,69.9,29.91,South,190,7.0,8.0,90,0.00,CLR,CLR,0.00,WeatherDisplay:10.37,2013-09-09 12:40:00,
2013-09-09 08:10:00,73.0,69.9,29.91,South,190,9.0,9.0,90,0.00,FEW,FEW,0.00,WeatherDisplay:10.37,2013-09-09 13:10:00,
2013-09-09 08:40:00,73.9,69.8,29.92,South,190,9.0,9.0,87,0.00,FEW,FEW,0.00,WeatherDisplay:10.37,2013-09-09 13:40:00,
2013-09-09 09:10:00,73.9,69.8,29.92,South,190,9.0,9.0,87,0.00,FEW,FEW,0.00,WeatherDisplay:10.37,2013-09-09 14:10:00,
2013-09-09 09:40:00,78.1,69.9,29.92,SSW,210,9.0,9.0,76,0.00,CLR,CLR,0.00,WeatherDisplay:10.37,2013-09-09 14:40:00,
2013-09-09 10:10:00,78.1,69.9,29.92,SSW,210,9.0,9.0,76,0.00,CLR,CLR,0.00,WeatherDisplay:10.37,2013-09-09 15:10:00,
2013-09-09 10:40:00,82.0,70.9,29.92,SW,220,10.0,10.0,69,0.00,CLR,CLR,0.00,WeatherDisplay:10.37,2013-09-09 15:40:00,
2013-09-09 11:10:00,82.0,70.9,29.92,SW,220,10.0,10.0,69,0.00,CLR,CLR,0.00,WeatherDisplay:10.37,2013-09-09 16:10:00,
2013-09-09 11:40:00,87.1,71.0,29.91,SW,220,10.0,10.0,59,0.00,CLR,CLR,0.00,WeatherDisplay:10.37,2013-09-09 16:40:00,
2013-09-09 12:10:00,87.1,71.0,29.91,SW,220,10.0,10.0,59,0.00,CLR,CLR,0.00,WeatherDisplay:10.37,2013-09-09 17:10:00,
2013-09-09 12:40:00,91.0,69.8,29.90,South,190,10.0,10.0,50,0.00,CLR,CLR,0.00,WeatherDisplay:10.37,2013-09-09 17:40:00,
2013-09-09 13:10:00,91.0,69.8,29.90,South,190,10.0,10.0,50,0.00,CLR,CLR,0.00,WeatherDisplay:10.37,2013-09-09 18:10:00,
2013-09-09 13:40:00,93.0,68.5,29.89,SW,230,8.0,8.0,45,0.00,CLR,CLR,0.00,WeatherDisplay:10.37,2013-09-09 18:40:00,
2013-09-09 14:10:00,93.0,68.5,29.89,SW,230,8.0,8.0,45,0.00,CLR,CLR,0.00,WeatherDisplay:10.37,2013-09-09 19:10:00,
2013-09-09 14:40:00,97.0,67.9,29.88,WSW,240,10.0,10.0,39,0.00,CLR,CLR,0.00,WeatherDisplay:10.37,2013-09-09 19:40:00,
2013-09-09 15:10:00,97.0,67.9,29.88,WSW,240,10.0,10.0,39,0.00,CLR,CLR,0.00,WeatherDisplay:10.37,2013-09-09 20:10:00,
2013-09-09 15:40:00,96.1,68.6,29.87,SSW,210,9.0,9.0,41,0.00,CLR,CLR,0.00,WeatherDisplay:10.37,2013-09-09 20:40:00,
2013-09-09 16:10:00,96.1,68.6,29.87,SSW,210,9.0,9.0,41,0.00,CLR,CLR,0.00,WeatherDisplay:10.37,2013-09-09 21:10:00,
2013-09-09 16:40:00,97.0,68.7,29.86,SSW,200,13.0,13.0,40,0.00,CLR,CLR,0.00,WeatherDisplay:10.37,2013-09-09 21:40:00,
2013-09-09 17:10:00,97.0,68.7,29.86,SSW,200,13.0,13.0,40,0.00,CLR,CLR,0.00,WeatherDisplay:10.37,2013-09-09 22:10:00,
2013-09-09 17:40:00,96.1,68.6,29.86,SW,230,16.0,16.0,41,0.00,CLR,CLR,0.00,WeatherDisplay:10.37,2013-09-09 22:40:00,
2013-09-09 18:10:00,96.1,68.6,29.86,SW,230,16.0,16.0,41,0.00,CLR,CLR,0.00,WeatherDisplay:10.37,2013-09-09 23:10:00,
2013-09-09 18:40:00,93.9,70.6,29.87,SSW,210,13.0,13.0,47,0.00,CLR,CLR,0.00,WeatherDisplay:10.37,2013-09-09 23:40:00,
2013-09-09 19:10:00,93.9,70.6,29.87,SSW,210,13.0,13.0,47,0.00,CLR,CLR,0.00,WeatherDisplay:10.37,2013-09-10 00:10:00,
2013-09-09 19:40:00,90.0,70.5,29.88,SSW,210,10.0,10.0,53,0.00,CLR,CLR,0.00,WeatherDisplay:10.37,2013-09-10 00:40:00,
2013-09-09 20:10:00,90.0,70.5,29.88,SSW,210,10.0,10.0,53,0.00,CLR,CLR,0.00,WeatherDisplay:10.37,2013-09-10 01:10:00,
2013-09-09 20:40:00,87.1,71.5,29.89,SSW,200,10.0,10.0,60,0.00,CLR,CLR,0.00,WeatherDisplay:10.37,2013-09-10 01:40:00,
2013-09-09 21:10:00,87.1,71.5,29.89,SSW,200,10.0,10.0,60,0.00,CLR,CLR,0.00,WeatherDisplay:10.37,2013-09-10 02:10:00,
2013-09-09 21:40:00,84.9,72.7,29.90,SSW,210,10.0,10.0,67,0.00,CLR,CLR,0.00,WeatherDisplay:10.37,2013-09-10 02:40:00,
2013-09-09 22:10:00,84.9,72.7,29.90,SSW,210,10.0,10.0,67,0.00,CLR,CLR,0.00,WeatherDisplay:10.37,2013-09-10 03:10:00,
2013-09-09 22:40:00,82.9,73.0,29.92,SSW,200,8.0,8.0,72,0.00,CLR,CLR,0.00,WeatherDisplay:10.37,2013-09-10 03:40:00,
2013-09-09 23:10:00,82.9,73.0,29.92,SSW,200,8.0,8.0,72,0.00,CLR,CLR,0.00,WeatherDisplay:10.37,2013-09-10 04:10:00,
2013-09-09 23:40:00,80.1,71.8,29.93,South,190,6.0,6.0,76,0.00,CLR,CLR,0.00,WeatherDisplay:10.37,2013-09-10 04:40:00,